Terminal Aerodrome Forecast
Issued by NWS

Home | Current Version | Previous Version | Text Only | Print | Product List | Glossary On
Versions: 1 2 3 4 5 6 7 8 9 10 11 12 13 14 15 16 17 18 19
055
FTUS43 KMPX 310520
TAFRNH
TAF
KRNH 310520Z 3106/0106 13007KT P6SM FEW070 BKN250
      TEMPO 3110/3112 6SM -TSRA OVC060CB
     FM311200 13008KT P6SM -SHRA VCTS BKN050CB OVC100
     FM311400 16010KT P6SM VCSH SCT050 OVC100
     FM311900 20012KT P6SM VCSH BKN060 PROB30 3119/3121 -TSRA
      BKN050CB
     FM312200 23008KT P6SM SCT200=

USA.gov is the U.S. government's official web portal to all federal, state and local government web resources and services.